Time;durP1;ratioP1;P1;durP2;ratioP2;P2;SDS_P1;SDS_P2;PMS_P1;PMS_P2;Temp;Humidity;BMP_temperature;BMP_pressure;BME280_temperature;BME280_humidity;BME280_pressure;Samples;Min_cycle;Max_cycle;Signal;HPM_P1;HPM_P2
2023/10/13 00:00:57;;;;;;;12.57;6.30;;;;;;;;;;5044926;28;20052;-61
2023/10/13 00:03:31;;;;;;;16.45;6.90;;;;;;;;;;5054250;28;20053;-62
2023/10/13 00:06:02;;;;;;;19.73;6.90;;;;;;;;;;5043520;28;20064;-63
2023/10/13 00:08:30;;;;;;;13.95;7.25;;;;;;;;;;5063293;28;20049;-62
2023/10/13 00:10:59;;;;;;;12.95;6.63;;;;;;;;;;5065067;28;20040;-60
2023/10/13 00:13:30;;;;;;;11.05;6.10;;;;;;;;;;5061866;28;20061;-63
2023/10/13 00:16:00;;;;;;;16.80;7.55;;;;;;;;;;5039509;28;20059;-62
2023/10/13 00:18:32;;;;;;;14.30;5.55;;;;;;;;;;5062533;28;20060;-62
2023/10/13 00:21:03;;;;;;;14.77;6.68;;;;;;;;;;5070134;28;20045;-62
2023/10/13 00:23:32;;;;;;;11.23;6.45;;;;;;;;;;5056464;28;20090;-61
2023/10/13 00:25:59;;;;;;;13.20;6.30;;;;;;;;;;5057362;28;20052;-63
2023/10/13 00:28:35;;;;;;;13.95;6.55;;;;;;;;;;5079834;28;20079;-61
2023/10/13 00:31:10;;;;;;;12.95;6.18;;;;;;;;;;5065380;28;20060;-63
2023/10/13 00:33:39;;;;;;;13.85;6.30;;;;;;;;;;5059491;28;20169;-62
2023/10/13 00:36:16;;;;;;;15.32;6.65;;;;;;;;;;5061939;28;20063;-63
2023/10/13 00:38:47;;;;;;;15.70;6.18;;;;;;;;;;5084174;28;20048;-64
2023/10/13 00:41:16;;;;;;;13.02;6.15;;;;;;;;;;5055340;28;20059;-63
2023/10/13 00:44:03;;;;;;;16.50;5.75;;;;;;;;;;5079785;28;20056;-62
2023/10/13 00:46:33;;;;;;;18.52;6.90;;;;;;;;;;5057762;28;20094;-62
2023/10/13 00:48:59;;;;;;;15.98;7.50;;;;;;;;;;5062255;28;20053;-62
2023/10/13 00:51:32;;;;;;;15.82;6.07;;;;;;;;;;5055072;28;20076;-61
2023/10/13 00:54:02;;;;;;;12.43;5.65;;;;;;;;;;5064108;28;20052;-63
2023/10/13 00:56:28;;;;;;;13.80;5.68;;;;;;;;;;5057209;28;20044;-62
2023/10/13 00:58:57;;;;;;;12.43;5.47;;;;;;;;;;5061043;28;20067;-62
2023/10/13 01:01:29;;;;;;;9.80;5.53;;;;;;;;;;5053134;28;20280;-63
2023/10/13 01:03:59;;;;;;;10.75;5.47;;;;;;;;;;5078080;28;20056;-63
2023/10/13 01:06:25;;;;;;;11.40;5.65;;;;;;;;;;5038157;28;20064;-62
2023/10/13 01:09:10;;;;;;;17.08;6.32;;;;;;;;;;5058196;28;20072;-62
2023/10/13 01:11:37;;;;;;;15.25;5.32;;;;;;;;;;5060383;28;20064;-62
2023/10/13 01:14:06;;;;;;;12.63;5.90;;;;;;;;;;5064205;28;20062;-62
2023/10/13 01:16:32;;;;;;;;;;;;;;;;;;5059745;28;20060;-62
2023/10/13 01:18:59;;;;;;;11.88;5.03;;;;;;;;;;5064073;28;19943;-63
2023/10/13 01:21:27;;;;;;;14.20;5.78;;;;;;;;;;5055904;28;20064;-62
2023/10/13 01:23:55;;;;;;;16.10;5.78;;;;;;;;;;5060448;28;20049;-62
2023/10/13 01:26:23;;;;;;;10.82;5.82;;;;;;;;;;5074405;28;20129;-62
2023/10/13 01:28:51;;;;;;;16.95;5.03;;;;;;;;;;5061602;28;20063;-62
2023/10/13 01:31:30;;;;;;;16.80;5.75;;;;;;;;;;5053101;28;20075;-63
2023/10/13 01:33:59;;;;;;;14.30;5.40;;;;;;;;;;5061330;28;20059;-63
2023/10/13 01:36:26;;;;;;;16.10;6.10;;;;;;;;;;5074334;28;20135;-63
2023/10/13 01:38:54;;;;;;;14.35;5.78;;;;;;;;;;5063488;28;20052;-63
2023/10/13 01:41:21;;;;;;;11.88;5.35;;;;;;;;;;5057407;28;20055;-63
2023/10/13 01:43:48;;;;;;;11.45;5.10;;;;;;;;;;5058927;28;20055;-63
2023/10/13 01:46:15;;;;;;;14.45;4.80;;;;;;;;;;5057651;28;20058;-63
2023/10/13 01:48:43;;;;;;;11.30;5.35;;;;;;;;;;5061473;28;20061;-62
2023/10/13 01:51:09;;;;;;;8.40;3.90;;;;;;;;;;5056763;28;20060;-64
2023/10/13 01:53:37;;;;;;;16.30;5.13;;;;;;;;;;5075745;28;20051;-63
2023/10/13 01:56:10;;;;;;;8.85;4.28;;;;;;;;;;5050657;28;20112;-63
2023/10/13 01:58:37;;;;;;;9.75;4.07;;;;;;;;;;5062430;28;20061;-63
2023/10/13 02:01:04;;;;;;;11.18;4.63;;;;;;;;;;5061356;28;20097;-63
2023/10/13 02:03:31;;;;;;;12.32;4.10;;;;;;;;;;5062233;28;20140;-62
2023/10/13 02:05:58;;;;;;;11.52;4.88;;;;;;;;;;5039786;28;20140;-62
2023/10/13 02:08:24;;;;;;;16.00;3.97;;;;;;;;;;5029272;28;20049;-63
2023/10/13 02:10:51;;;;;;;9.10;4.40;;;;;;;;;;5038873;28;20062;-62
2023/10/13 02:13:22;;;;;;;9.68;4.57;;;;;;;;;;5022277;28;20057;-63
2023/10/13 02:15:48;;;;;;;11.10;4.55;;;;;;;;;;5057231;28;20073;-62
2023/10/13 02:18:20;;;;;;;8.50;4.22;;;;;;;;;;5040698;28;20045;-65
2023/10/13 02:20:54;;;;;;;13.40;4.05;;;;;;;;;;5058301;28;20053;-63
2023/10/13 02:23:21;;;;;;;10.18;4.30;;;;;;;;;;5060275;28;20060;-63
2023/10/13 02:25:46;;;;;;;10.90;4.05;;;;;;;;;;5072804;28;20061;-63
2023/10/13 02:28:14;;;;;;;9.75;4.13;;;;;;;;;;5060002;28;20083;-64
2023/10/13 02:30:44;;;;;;;8.60;3.38;;;;;;;;;;5076008;28;20063;-63
2023/10/13 02:33:14;;;;;;;7.70;3.78;;;;;;;;;;5061790;28;20060;-62
2023/10/13 02:35:50;;;;;;;11.10;3.53;;;;;;;;;;5062167;28;20058;-63
2023/10/13 02:38:26;;;;;;;8.13;3.85;;;;;;;;;;5052568;28;20064;-63
2023/10/13 02:40:53;;;;;;;8.40;3.85;;;;;;;;;;5061728;28;20053;-63
2023/10/13 02:43:21;;;;;;;8.90;3.50;;;;;;;;;;5067301;28;20080;-61
2023/10/13 02:45:58;;;;;;;18.77;3.22;;;;;;;;;;5058475;28;20120;-62
2023/10/13 02:48:30;;;;;;;9.07;3.17;;;;;;;;;;5073424;28;20117;-62
2023/10/13 02:50:57;;;;;;;6.93;2.95;;;;;;;;;;5077402;28;20067;-61
2023/10/13 02:53:24;;;;;;;9.55;3.42;;;;;;;;;;5077198;28;20053;-62
2023/10/13 02:55:51;;;;;;;10.05;3.17;;;;;;;;;;5055559;28;20060;-61
2023/10/13 02:58:18;;;;;;;14.73;3.13;;;;;;;;;;5055345;28;20052;-62
2023/10/13 03:00:44;;;;;;;9.00;3.38;;;;;;;;;;5076988;28;20084;-61
2023/10/13 03:03:14;;;;;;;7.63;2.90;;;;;;;;;;5062390;28;20055;-61
2023/10/13 03:05:42;;;;;;;9.48;2.85;;;;;;;;;;5055933;28;20175;-61
2023/10/13 03:08:11;;;;;;;6.38;2.70;;;;;;;;;;5060340;28;20063;-61
2023/10/13 03:10:40;;;;;;;10.43;2.60;;;;;;;;;;5059529;28;20060;-63
2023/10/13 03:13:08;;;;;;;6.03;2.83;;;;;;;;;;5056686;28;20114;-61
2023/10/13 03:15:35;;;;;;;7.68;2.75;;;;;;;;;;5026670;28;20053;-61
2023/10/13 03:18:02;;;;;;;8.00;2.47;;;;;;;;;;5058727;28;20053;-61
2023/10/13 03:20:32;;;;;;;7.10;2.80;;;;;;;;;;5037072;28;20085;-61
2023/10/13 03:22:58;;;;;;;9.68;2.45;;;;;;;;;;5046485;28;20057;-61
2023/10/13 03:25:29;;;;;;;10.63;2.65;;;;;;;;;;5044389;28;20130;-61
2023/10/13 03:28:01;;;;;;;6.80;2.55;;;;;;;;;;5060057;28;20119;-60
2023/10/13 03:30:34;;;;;;;7.10;2.65;;;;;;;;;;5063103;28;20095;-61
2023/10/13 03:33:06;;;;;;;11.02;2.30;;;;;;;;;;5066458;28;20132;-60
2023/10/13 03:35:39;;;;;;;6.00;2.83;;;;;;;;;;5059169;28;20055;-61
2023/10/13 03:38:14;;;;;;;14.27;5.63;;;;;;;;;;5065570;28;20048;-61
2023/10/13 03:40:41;;;;;;;17.35;5.13;;;;;;;;;;5080229;28;20110;-61
2023/10/13 03:43:09;;;;;;;17.60;5.72;;;;;;;;;;5069387;28;20067;-61
2023/10/13 03:45:39;;;;;;;8.23;3.75;;;;;;;;;;5065905;28;20146;-61
2023/10/13 03:48:09;;;;;;;9.63;3.67;;;;;;;;;;5064002;28;20056;-61
2023/10/13 03:50:46;;;;;;;11.15;4.25;;;;;;;;;;5075605;28;22159;-62
2023/10/13 03:53:13;;;;;;;10.90;5.10;;;;;;;;;;5066521;28;20044;-62
2023/10/13 03:55:39;;;;;;;11.48;5.05;;;;;;;;;;5065489;28;20052;-61
2023/10/13 03:58:10;;;;;;;11.85;5.10;;;;;;;;;;5065078;28;20052;-62
2023/10/13 04:00:38;;;;;;;12.77;6.35;;;;;;;;;;5072977;28;20052;-63
2023/10/13 04:03:09;;;;;;;14.30;6.35;;;;;;;;;;5065408;28;20067;-61
2023/10/13 04:05:44;;;;;;;13.23;6.30;;;;;;;;;;5050080;28;20053;-62
2023/10/13 04:16:50;;;;;;;13.52;5.63;;;;;;;;;;5072542;28;20110;-62
2023/10/13 04:19:22;;;;;;;11.88;5.28;;;;;;;;;;5061782;28;20060;-61
2023/10/13 04:22:13;;;;;;;15.70;4.57;;;;;;;;;;5062621;28;20041;-61
2023/10/13 04:25:00;;;;;;;8.65;3.95;;;;;;;;;;5072927;28;20053;-61
2023/10/13 04:27:53;;;;;;;7.97;4.10;;;;;;;;;;5061735;28;20057;-62
2023/10/13 04:30:27;;;;;;;8.23;3.97;;;;;;;;;;5055114;28;20052;-62
2023/10/13 04:33:17;;;;;;;7.38;3.53;;;;;;;;;;5063178;28;20052;-62
2023/10/13 04:35:58;;;;;;;10.30;4.32;;;;;;;;;;5065863;28;20082;-62
2023/10/13 04:38:33;;;;;;;12.02;4.20;;;;;;;;;;5056097;28;20366;-61
2023/10/13 04:41:01;;;;;;;12.63;4.47;;;;;;;;;;5080838;28;20063;-62
2023/10/13 04:43:55;;;;;;;10.40;4.82;;;;;;;;;;5073192;28;20143;-64
2023/10/13 04:46:35;;;;;;;17.60;6.05;;;;;;;;;;5056051;28;20099;-62
2023/10/13 04:49:09;;;;;;;11.88;5.65;;;;;;;;;;5062914;28;20148;-62
2023/10/13 04:51:49;;;;;;;13.48;6.25;;;;;;;;;;5062318;28;20052;-61
2023/10/13 04:54:33;;;;;;;22.27;6.47;;;;;;;;;;5053069;28;20057;-62
2023/10/13 05:02:43;;;;;;;12.95;5.80;;;;;;;;;;5024969;28;20071;-63
2023/10/13 05:47:01;;;;;;;12.40;4.38;;;;;;;;;;5030850;28;20248;-64
2023/10/13 05:49:49;;;;;;;8.23;3.42;;;;;;;;;;5039988;28;20135;-63
2023/10/13 06:28:40;;;;;;;7.90;3.65;;;;;;;;;;5034472;28;20077;-63
2023/10/13 06:31:06;;;;;;;8.70;3.42;;;;;;;;;;4981214;28;20046;-62
2023/10/13 06:33:44;;;;;;;9.80;3.42;;;;;;;;;;5040073;28;20053;-63
2023/10/13 06:36:10;;;;;;;8.18;3.28;;;;;;;;;;5064438;28;20052;-64
2023/10/13 06:38:37;;;;;;;9.50;3.42;;;;;;;;;;5070615;28;20044;-63
2023/10/13 06:41:05;;;;;;;8.52;3.47;;;;;;;;;;5056246;28;20117;-63
2023/10/13 06:43:39;;;;;;;10.07;3.20;;;;;;;;;;5058309;28;20053;-63
2023/10/13 06:46:07;;;;;;;8.40;3.28;;;;;;;;;;5042416;28;20064;-62
2023/10/13 06:48:34;;;;;;;7.15;2.95;;;;;;;;;;5050823;28;20097;-63
2023/10/13 06:51:17;;;;;;;9.38;4.75;;;;;;;;;;5057674;28;20076;-62
2023/10/13 06:53:47;;;;;;;10.07;3.72;;;;;;;;;;5055673;28;20041;-63
2023/10/13 06:56:17;;;;;;;9.63;3.47;;;;;;;;;;5047759;28;20053;-64
2023/10/13 06:58:46;;;;;;;8.90;4.05;;;;;;;;;;5054306;28;20049;-62
2023/10/13 07:01:15;;;;;;;9.65;4.13;;;;;;;;;;5036241;28;20057;-62
2023/10/13 07:03:44;;;;;;;8.68;3.80;;;;;;;;;;5053767;28;20119;-62
2023/10/13 07:06:18;;;;;;;7.90;3.08;;;;;;;;;;5032579;28;20103;-63
2023/10/13 07:08:51;;;;;;;10.30;2.83;;;;;;;;;;5051202;28;20136;-62
2023/10/13 07:11:32;;;;;;;8.68;3.15;;;;;;;;;;5037811;28;20188;-62
2023/10/13 07:14:02;;;;;;;9.77;3.40;;;;;;;;;;5033674;28;20053;-64
2023/10/13 07:16:36;;;;;;;11.35;3.25;;;;;;;;;;5033538;28;20110;-62
2023/10/13 07:19:05;;;;;;;9.70;3.28;;;;;;;;;;5051361;28;20144;-61
2023/10/13 07:21:34;;;;;;;12.73;3.83;;;;;;;;;;5037137;28;20115;-62
2023/10/13 07:24:11;;;;;;;7.82;3.53;;;;;;;;;;5025292;28;20084;-63
2023/10/13 07:26:42;;;;;;;14.88;3.90;;;;;;;;;;5068291;28;20056;-62
2023/10/13 07:29:10;;;;;;;10.70;3.72;;;;;;;;;;5059202;28;20133;-61
2023/10/13 07:31:40;;;;;;;10.35;4.35;;;;;;;;;;5073958;28;20125;-61
2023/10/13 07:34:24;;;;;;;11.50;4.72;;;;;;;;;;5070119;28;20099;-62
2023/10/13 07:36:59;;;;;;;16.27;5.47;;;;;;;;;;5072321;28;20102;-62
2023/10/13 07:39:25;;;;;;;13.98;4.97;;;;;;;;;;5056380;28;20082;-61
2023/10/13 07:41:55;;;;;;;15.25;4.72;;;;;;;;;;5057285;28;20087;-62
2023/10/13 07:44:24;;;;;;;10.88;4.25;;;;;;;;;;5034598;28;20068;-62
2023/10/13 07:46:58;;;;;;;10.15;4.30;;;;;;;;;;5055918;28;20052;-62
2023/10/13 07:49:30;;;;;;;11.65;4.38;;;;;;;;;;5056682;28;20056;-62
2023/10/13 07:52:06;;;;;;;14.23;5.60;;;;;;;;;;5071280;28;20056;-62
2023/10/13 07:54:40;;;;;;;15.65;5.18;;;;;;;;;;5046235;28;20041;-62
2023/10/13 07:57:08;;;;;;;17.30;4.30;;;;;;;;;;5036793;28;20309;-62
2023/10/13 07:59:35;;;;;;;13.95;4.38;;;;;;;;;;5035364;28;20106;-62
2023/10/13 08:02:15;;;;;;;12.93;5.20;;;;;;;;;;5052315;28;20109;-63
2023/10/13 08:04:45;;;;;;;10.60;4.63;;;;;;;;;;5002316;28;20050;-62
2023/10/13 08:07:14;;;;;;;13.52;3.72;;;;;;;;;;5038861;28;20053;-63
2023/10/13 08:09:43;;;;;;;11.40;3.78;;;;;;;;;;5039506;28;20463;-62
2023/10/13 08:12:12;;;;;;;;;;;;;;;;;;5059168;28;20174;-63
2023/10/13 08:14:40;;;;;;;11.95;4.68;;;;;;;;;;5046552;28;19924;-62
2023/10/13 08:17:10;;;;;;;11.73;3.53;;;;;;;;;;5058139;28;20057;-62
2023/10/13 08:19:44;;;;;;;12.38;3.95;;;;;;;;;;5066373;28;20063;-65
2023/10/13 08:22:26;;;;;;;11.10;3.42;;;;;;;;;;5059592;28;20049;-62
2023/10/13 08:27:48;;;;;;;10.02;3.38;;;;;;;;;;5047906;28;20057;-62
2023/10/13 08:30:29;;;;;;;17.13;3.45;;;;;;;;;;5050300;28;20145;-63
2023/10/13 08:32:56;;;;;;;11.80;3.90;;;;;;;;;;5057748;28;20251;-62
2023/10/13 08:35:25;;;;;;;12.85;3.75;;;;;;;;;;5029059;28;20080;-63
2023/10/13 08:38:13;;;;;;;8.38;2.22;;;;;;;;;;5060936;28;20052;-62
2023/10/13 08:41:09;;;;;;;16.05;4.15;;;;;;;;;;5073589;28;20075;-62
2023/10/13 08:43:44;;;;;;;15.95;4.05;;;;;;;;;;5074100;28;20139;-62
2023/10/13 08:46:24;;;;;;;18.67;3.53;;;;;;;;;;5009599;28;20083;-61
2023/10/13 08:49:07;;;;;;;8.00;3.15;;;;;;;;;;5059931;28;20076;-61
2023/10/13 08:51:49;;;;;;;13.60;3.42;;;;;;;;;;5037898;28;20048;-61
2023/10/13 08:54:19;;;;;;;6.45;2.75;;;;;;;;;;5057824;28;20140;-61
2023/10/13 08:56:55;;;;;;;12.52;3.00;;;;;;;;;;5035136;28;20060;-64
2023/10/13 08:59:38;;;;;;;21.90;3.42;;;;;;;;;;5053478;28;20183;-61
2023/10/13 09:02:17;;;;;;;12.30;3.30;;;;;;;;;;5039154;28;20048;-62
2023/10/13 09:04:44;;;;;;;18.83;3.50;;;;;;;;;;5049010;28;20044;-62
2023/10/13 09:07:15;;;;;;;15.60;3.67;;;;;;;;;;5045196;28;20041;-62
2023/10/13 09:09:59;;;;;;;10.90;3.40;;;;;;;;;;5038839;28;20065;-62
2023/10/13 09:12:35;;;;;;;16.00;4.45;;;;;;;;;;5039222;28;20053;-62
2023/10/13 09:15:05;;;;;;;15.38;3.83;;;;;;;;;;4999643;28;20126;-62
2023/10/13 09:17:35;;;;;;;10.40;3.72;;;;;;;;;;5039468;28;20061;-64
2023/10/13 09:20:24;;;;;;;13.57;3.90;;;;;;;;;;5036589;28;20067;-62
2023/10/13 09:23:07;;;;;;;17.90;3.47;;;;;;;;;;5053834;28;20057;-61
2023/10/13 09:25:36;;;;;;;11.75;3.60;;;;;;;;;;5015907;28;20064;-63
2023/10/13 09:28:10;;;;;;;11.10;3.92;;;;;;;;;;5039175;28;20071;-61
2023/10/13 09:30:42;;;;;;;21.23;4.45;;;;;;;;;;5035105;28;20069;-62
2023/10/13 09:33:09;;;;;;;13.93;4.22;;;;;;;;;;5046092;28;20053;-62
2023/10/13 09:35:37;;;;;;;16.42;4.30;;;;;;;;;;5050117;28;20058;-62
2023/10/13 09:38:06;;;;;;;10.55;3.30;;;;;;;;;;5059349;28;20060;-63
2023/10/13 09:40:37;;;;;;;15.73;3.70;;;;;;;;;;5051292;28;21358;-62
2023/10/13 09:43:08;;;;;;;10.57;3.22;;;;;;;;;;5073795;28;20053;-62
2023/10/13 09:45:39;;;;;;;8.43;3.10;;;;;;;;;;5048886;28;20048;-62
2023/10/13 09:48:16;;;;;;;19.77;3.88;;;;;;;;;;5047600;28;20310;-62
2023/10/13 09:50:44;;;;;;;12.52;3.85;;;;;;;;;;5039701;28;20064;-62
2023/10/13 09:53:13;;;;;;;12.68;3.60;;;;;;;;;;5044803;28;20075;-62
2023/10/13 09:55:44;;;;;;;19.50;4.03;;;;;;;;;;5027473;28;20087;-62
2023/10/13 09:58:14;;;;;;;17.33;4.43;;;;;;;;;;5064976;28;20056;-62
2023/10/13 10:00:49;;;;;;;17.27;3.90;;;;;;;;;;5055578;28;20052;-62
2023/10/13 10:03:29;;;;;;;12.80;3.60;;;;;;;;;;5061815;28;20056;-63
2023/10/13 10:06:03;;;;;;;13.57;4.28;;;;;;;;;;5043120;28;20079;-62
2023/10/13 10:08:34;;;;;;;15.68;4.68;;;;;;;;;;5037210;28;21040;-62
2023/10/13 10:11:20;;;;;;;17.92;3.92;;;;;;;;;;5035668;28;20069;-62
2023/10/13 10:13:57;;;;;;;15.02;4.00;;;;;;;;;;5038784;28;20136;-62
2023/10/13 10:16:37;;;;;;;13.68;4.35;;;;;;;;;;5053282;28;20541;-61
2023/10/13 10:19:07;;;;;;;11.35;4.00;;;;;;;;;;5055847;28;20056;-62
2023/10/13 10:21:35;;;;;;;13.05;4.43;;;;;;;;;;5058164;28;20062;-62
2023/10/13 10:24:23;;;;;;;12.68;3.80;;;;;;;;;;5071965;28;20060;-62
2023/10/13 10:26:55;;;;;;;11.98;4.13;;;;;;;;;;5068914;28;20128;-62
2023/10/13 10:29:22;;;;;;;17.75;4.38;;;;;;;;;;5033043;28;20041;-62
2023/10/13 10:31:50;;;;;;;9.52;3.67;;;;;;;;;;5048756;28;20072;-62
2023/10/13 10:34:19;;;;;;;13.18;4.00;;;;;;;;;;5052212;28;20608;-62
2023/10/13 10:36:55;;;;;;;16.13;4.43;;;;;;;;;;5044032;28;20062;-62
2023/10/13 10:39:33;;;;;;;26.13;4.50;;;;;;;;;;5023895;28;20053;-62
2023/10/13 10:42:15;;;;;;;13.75;4.10;;;;;;;;;;5013685;28;20065;-62
2023/10/13 10:44:44;;;;;;;26.35;4.57;;;;;;;;;;5032753;28;20058;-62
2023/10/13 10:47:11;;;;;;;;;;;;;;;;;;5033195;28;20157;-62
2023/10/13 10:49:40;;;;;;;16.00;3.78;;;;;;;;;;5020692;28;19929;-63
2023/10/13 10:52:18;;;;;;;15.95;4.18;;;;;;;;;;5036508;28;20230;-62
2023/10/13 10:54:51;;;;;;;23.75;4.25;;;;;;;;;;5055779;28;20211;-62
2023/10/13 10:57:28;;;;;;;11.65;4.35;;;;;;;;;;5057701;28;20072;-62
2023/10/13 11:00:10;;;;;;;17.50;4.03;;;;;;;;;;5026344;28;20044;-62
2023/10/13 11:02:37;;;;;;;13.40;3.92;;;;;;;;;;5056064;28;20128;-62
2023/10/13 11:05:09;;;;;;;12.52;3.88;;;;;;;;;;5050960;28;20146;-62
2023/10/13 11:07:36;;;;;;;15.43;3.88;;;;;;;;;;5050985;28;20048;-63
2023/10/13 11:10:12;;;;;;;15.00;4.43;;;;;;;;;;5027819;28;20974;-62
2023/10/13 11:12:54;;;;;;;16.48;3.92;;;;;;;;;;5032485;28;20055;-62
2023/10/13 11:15:22;;;;;;;13.32;4.47;;;;;;;;;;5017754;28;20060;-61
2023/10/13 11:17:51;;;;;;;13.02;3.45;;;;;;;;;;5010387;28;20076;-62
2023/10/13 11:20:33;;;;;;;17.33;4.43;;;;;;;;;;5046180;28;20126;-62
2023/10/13 11:23:04;;;;;;;13.45;3.75;;;;;;;;;;5051996;28;20072;-62
2023/10/13 11:25:34;;;;;;;21.35;4.25;;;;;;;;;;5055673;28;20088;-61
2023/10/13 11:28:19;;;;;;;15.30;3.72;;;;;;;;;;5054080;28;20067;-61
2023/10/13 11:30:49;;;;;;;11.82;3.72;;;;;;;;;;5068288;28;20049;-62
2023/10/13 11:33:23;;;;;;;11.68;3.70;;;;;;;;;;5055842;28;20064;-62
2023/10/13 11:35:58;;;;;;;11.52;3.85;;;;;;;;;;5065020;28;20144;-61
2023/10/13 11:38:26;;;;;;;14.18;3.78;;;;;;;;;;5058613;28;20092;-62
2023/10/13 11:44:12;;;;;;;17.33;4.57;;;;;;;;;;4996233;28;19937;-62
2023/10/13 11:46:56;;;;;;;16.42;4.20;;;;;;;;;;5050125;28;20048;-61
2023/10/13 11:49:36;;;;;;;16.52;4.90;;;;;;;;;;5044656;28;20084;-61
2023/10/13 11:52:16;;;;;;;18.83;5.25;;;;;;;;;;5055699;28;20106;-63
2023/10/13 11:54:44;;;;;;;11.18;3.88;;;;;;;;;;5058376;28;20053;-63
2023/10/13 11:57:11;;;;;;;16.02;4.18;;;;;;;;;;5076088;28;20048;-63
2023/10/13 11:59:52;;;;;;;15.27;3.95;;;;;;;;;;5044928;28;20076;-63
2023/10/13 12:05:13;;;;;;;15.80;4.60;;;;;;;;;;5034659;28;20056;-63
2023/10/13 12:07:51;;;;;;;16.13;3.85;;;;;;;;;;5053523;28;20068;-64
2023/10/13 12:10:49;;;;;;;23.92;3.97;;;;;;;;;;5053334;28;20135;-63
2023/10/13 12:13:19;;;;;;;15.35;3.83;;;;;;;;;;5075296;28;20072;-63
2023/10/13 12:15:52;;;;;;;11.75;4.30;;;;;;;;;;5052269;28;20075;-62
2023/10/13 12:18:19;;;;;;;16.58;4.53;;;;;;;;;;5058358;28;20052;-63
2023/10/13 12:20:46;;;;;;;16.92;4.45;;;;;;;;;;5034759;28;20177;-63
2023/10/13 12:23:20;;;;;;;17.42;4.72;;;;;;;;;;5060247;28;20064;-63
2023/10/13 12:25:57;;;;;;;13.55;4.65;;;;;;;;;;5051729;28;20071;-61
2023/10/13 12:28:26;;;;;;;15.60;4.50;;;;;;;;;;5059439;28;20056;-63
2023/10/13 12:30:57;;;;;;;22.92;4.97;;;;;;;;;;5044545;28;20064;-62
2023/10/13 12:33:25;;;;;;;15.10;4.40;;;;;;;;;;5062144;28;20136;-63
2023/10/13 12:36:14;;;;;;;14.00;4.10;;;;;;;;;;5053279;28;20057;-63
2023/10/13 12:49:57;;;;;;;17.33;4.45;;;;;;;;;;5030108;28;20139;-62
2023/10/13 12:52:26;;;;;;;18.08;4.30;;;;;;;;;;5052080;28;20079;-63
2023/10/13 12:55:05;;;;;;;18.52;4.25;;;;;;;;;;5074510;28;20052;-63
2023/10/13 12:57:33;;;;;;;15.98;4.50;;;;;;;;;;5060274;28;20166;-63
2023/10/13 13:00:00;;;;;;;17.88;4.95;;;;;;;;;;5054317;28;20125;-62
2023/10/13 13:02:29;;;;;;;21.40;4.32;;;;;;;;;;5058305;28;20063;-62
2023/10/13 13:05:05;;;;;;;18.35;4.57;;;;;;;;;;5058070;28;20052;-62
2023/10/13 13:07:43;;;;;;;12.15;3.90;;;;;;;;;;5058627;28;20063;-63
2023/10/13 13:10:13;;;;;;;15.17;3.73;;;;;;;;;;5053944;28;20086;-62
2023/10/13 13:12:40;;;;;;;16.48;4.32;;;;;;;;;;5063513;28;20109;-63
2023/10/13 13:15:08;;;;;;;18.00;4.25;;;;;;;;;;5057514;28;20064;-62
2023/10/13 13:17:38;;;;;;;16.10;4.60;;;;;;;;;;5060902;28;20072;-62
2023/10/13 13:20:11;;;;;;;19.45;4.30;;;;;;;;;;5013676;28;20056;-62
2023/10/13 13:22:38;;;;;;;19.88;4.05;;;;;;;;;;5038511;28;20121;-62
2023/10/13 13:25:08;;;;;;;21.23;3.92;;;;;;;;;;5056063;28;20059;-64
2023/10/13 13:27:36;;;;;;;17.98;4.57;;;;;;;;;;5036338;28;20057;-63
2023/10/13 13:30:12;;;;;;;16.10;4.17;;;;;;;;;;5055747;28;20044;-62
2023/10/13 13:32:41;;;;;;;15.02;4.10;;;;;;;;;;5057135;28;20060;-64
2023/10/13 13:35:14;;;;;;;14.63;4.40;;;;;;;;;;5058107;28;20111;-61
2023/10/13 13:37:43;;;;;;;18.80;4.40;;;;;;;;;;5051436;28;20048;-62
2023/10/13 13:40:18;;;;;;;13.23;4.55;;;;;;;;;;5027975;28;20067;-61
2023/10/13 13:42:45;;;;;;;13.80;3.88;;;;;;;;;;5035607;28;20065;-61
2023/10/13 13:45:27;;;;;;;13.60;3.92;;;;;;;;;;5054267;28;20144;-61
2023/10/13 13:47:56;;;;;;;17.38;4.82;;;;;;;;;;5046163;28;20072;-61
2023/10/13 13:50:29;;;;;;;14.10;4.22;;;;;;;;;;5046191;28;20050;-61
2023/10/13 13:52:59;;;;;;;24.55;5.65;;;;;;;;;;5074104;28;20059;-62
2023/10/13 13:55:28;;;;;;;16.92;4.78;;;;;;;;;;5056764;28;20087;-61
2023/10/13 13:57:57;;;;;;;14.15;4.50;;;;;;;;;;5049679;28;20056;-62
2023/10/13 14:00:37;;;;;;;;;;;;;;;;;;5013395;28;20056;-62
2023/10/13 14:03:12;;;;;;;10.27;3.63;;;;;;;;;;5055002;28;19985;-62
2023/10/13 14:05:41;;;;;;;14.93;4.25;;;;;;;;;;5051694;28;20080;-63
2023/10/13 14:08:11;;;;;;;20.00;4.25;;;;;;;;;;5074212;28;20194;-63
2023/10/13 14:11:13;;;;;;;13.48;4.18;;;;;;;;;;5019976;28;20083;-62
2023/10/13 14:13:47;;;;;;;15.77;4.40;;;;;;;;;;5052131;28;20056;-62
2023/10/13 14:16:16;;;;;;;17.30;5.55;;;;;;;;;;5037428;28;20049;-63
2023/10/13 14:18:48;;;;;;;20.92;4.32;;;;;;;;;;5025568;28;20056;-63
2023/10/13 14:21:17;;;;;;;17.70;4.00;;;;;;;;;;5067621;28;20049;-62
2023/10/13 14:23:47;;;;;;;14.70;3.42;;;;;;;;;;5070542;28;20056;-62
2023/10/13 14:26:15;;;;;;;18.48;3.97;;;;;;;;;;5049203;28;20071;-62
2023/10/13 14:28:51;;;;;;;17.08;3.65;;;;;;;;;;5056529;28;20040;-62
2023/10/13 14:31:19;;;;;;;13.32;3.55;;;;;;;;;;5050636;28;20080;-63
2023/10/13 14:33:49;;;;;;;13.13;4.00;;;;;;;;;;5048127;28;20068;-62
2023/10/13 14:36:19;;;;;;;17.85;3.90;;;;;;;;;;5060684;28;20090;-63
2023/10/13 14:38:49;;;;;;;20.05;4.00;;;;;;;;;;5055700;28;20048;-62
2023/10/13 14:41:20;;;;;;;19.88;4.35;;;;;;;;;;5043785;28;20091;-62
2023/10/13 14:43:48;;;;;;;10.95;3.15;;;;;;;;;;5063385;28;20157;-62
2023/10/13 14:46:16;;;;;;;13.52;3.20;;;;;;;;;;5058038;28;20139;-62
2023/10/13 14:48:48;;;;;;;17.05;3.80;;;;;;;;;;5056250;28;20048;-63
2023/10/13 14:51:33;;;;;;;17.17;4.03;;;;;;;;;;5043293;28;20084;-61
2023/10/13 14:54:00;;;;;;;14.15;3.70;;;;;;;;;;5051824;28;21253;-62
2023/10/13 14:56:28;;;;;;;18.75;4.70;;;;;;;;;;5057612;28;20151;-62
2023/10/13 15:01:52;;;;;;;;;;;;;;;;;;5014732;28;20173;-63
2023/10/13 15:04:24;;;;;;;13.57;3.67;;;;;;;;;;5051963;28;19994;-62
2023/10/13 15:06:52;;;;;;;15.07;4.32;;;;;;;;;;5039150;28;20393;-63
2023/10/13 15:09:23;;;;;;;21.15;5.55;;;;;;;;;;5033852;28;20041;-63
2023/10/13 15:11:52;;;;;;;24.10;5.97;;;;;;;;;;5048935;28;20131;-63
2023/10/13 15:14:20;;;;;;;16.23;4.60;;;;;;;;;;5071476;28;20154;-63
2023/10/13 15:16:48;;;;;;;11.60;3.63;;;;;;;;;;5052909;28;20053;-62
2023/10/13 15:19:16;;;;;;;15.25;3.70;;;;;;;;;;5039821;28;20061;-63
2023/10/13 15:21:48;;;;;;;12.82;3.85;;;;;;;;;;5048827;28;20044;-63
2023/10/13 15:24:25;;;;;;;13.73;3.42;;;;;;;;;;5061700;28;20060;-65
2023/10/13 15:27:01;;;;;;;14.35;4.35;;;;;;;;;;5059864;28;20044;-63
2023/10/13 15:29:35;;;;;;;10.80;3.28;;;;;;;;;;5047742;28;20140;-63
2023/10/13 15:32:41;;;;;;;10.77;3.70;;;;;;;;;;5052475;28;20052;-63
2023/10/13 15:34:54;;;;;;;11.30;3.80;;;;;;;;;;5058824;28;20051;-63
2023/10/13 15:37:25;;;;;;;12.23;2.88;;;;;;;;;;5057848;28;20049;-63
2023/10/13 15:39:54;;;;;;;13.52;3.63;;;;;;;;;;5018325;28;20061;-64
2023/10/13 15:42:21;;;;;;;17.40;4.47;;;;;;;;;;5033469;28;20057;-63
2023/10/13 15:44:49;;;;;;;11.13;3.53;;;;;;;;;;5033567;28;20203;-63
2023/10/13 15:47:18;;;;;;;8.60;3.25;;;;;;;;;;5035610;28;20163;-63
2023/10/13 15:49:45;;;;;;;13.80;3.67;;;;;;;;;;4942298;28;20074;-64
2023/10/13 15:52:12;;;;;;;14.63;4.53;;;;;;;;;;4982163;28;20061;-64
2023/10/13 15:54:40;;;;;;;12.30;3.75;;;;;;;;;;4990596;28;20053;-63
2023/10/13 15:57:16;;;;;;;;;;;;;;;;;;4994850;28;20127;-64
2023/10/13 15:59:45;;;;;;;7.93;2.80;;;;;;;;;;5024986;28;19924;-65
2023/10/13 16:02:12;;;;;;;13.68;3.53;;;;;;;;;;5059856;28;20060;-65
2023/10/13 16:04:39;;;;;;;13.60;3.70;;;;;;;;;;5058260;28;20116;-65
2023/10/13 16:07:05;;;;;;;10.00;3.40;;;;;;;;;;5059420;28;20052;-65
2023/10/13 16:09:35;;;;;;;20.95;3.67;;;;;;;;;;5054849;28;20080;-65
2023/10/13 16:12:05;;;;;;;12.43;3.15;;;;;;;;;;5055594;28;21280;-64
2023/10/13 16:14:35;;;;;;;11.38;4.22;;;;;;;;;;5074860;28;20083;-64
2023/10/13 16:17:02;;;;;;;10.63;3.70;;;;;;;;;;5059118;28;20133;-64
2023/10/13 16:19:30;;;;;;;19.45;4.20;;;;;;;;;;5033620;28;20080;-64
2023/10/13 16:22:00;;;;;;;13.63;3.72;;;;;;;;;;5048658;28;21092;-64
2023/10/13 16:24:27;;;;;;;9.50;3.70;;;;;;;;;;5053012;28;20044;-64
2023/10/13 16:26:55;;;;;;;16.42;4.07;;;;;;;;;;5072805;28;20061;-64
2023/10/13 16:29:23;;;;;;;14.63;3.80;;;;;;;;;;5024680;28;20053;-64
2023/10/13 16:31:57;;;;;;;17.25;3.78;;;;;;;;;;5047437;28;20168;-64
2023/10/13 16:34:25;;;;;;;11.13;4.13;;;;;;;;;;5060731;28;20055;-63
2023/10/13 16:36:55;;;;;;;12.00;3.97;;;;;;;;;;5061529;28;20052;-64
2023/10/13 16:39:22;;;;;;;13.95;4.55;;;;;;;;;;5070186;28;20500;-65
2023/10/13 16:41:55;;;;;;;17.35;3.50;;;;;;;;;;5048951;28;20064;-64
2023/10/13 16:44:30;;;;;;;9.77;3.50;;;;;;;;;;5056052;28;20143;-63
2023/10/13 16:47:00;;;;;;;11.40;3.67;;;;;;;;;;5062855;28;20059;-63
2023/10/13 16:49:28;;;;;;;16.23;3.72;;;;;;;;;;5059475;28;20048;-64
2023/10/13 16:51:56;;;;;;;15.93;3.60;;;;;;;;;;5027810;28;20075;-64
2023/10/13 16:54:24;;;;;;;13.07;3.45;;;;;;;;;;5036748;28;20293;-63
2023/10/13 16:56:55;;;;;;;9.80;3.97;;;;;;;;;;5050192;28;20076;-64